Costa Atlantica — IBLQ — position and weather

sailwx.info

Track history (hours):
 
Tides and Currents Weather Stations Pressure Air Temp Water Temp Dewpoint Dewpoint Depression Visibility Wind Speed Wind Dir Waves Ship Positions

Costa Atlantica (Italy)

Last reported at 2019-Sep-21 04:48 UTC. Time now 2019-Sep-21 10:56 UTC.
Position N 16°07' E 108°13'.

Length 292 m; draft 8 m.

Type: Ship. MMSI: 247595017.

Date/timePositionNaut miles runAvg speedWind from/ knotsBaromVisibWave heightAir tempDewpointWater temp
2019-Sep-21 04:48N 16°07' E 108°13'0 0.0
2019-Sep-21 04:31N 16°07' E 108°13'0 0.0
2019-Sep-21 04:00N 16°07' E 108°13'0 0.0
2019-Sep-21 03:31N 16°07' E 108°13'0 0.0
2019-Sep-21 03:00N 16°07' E 108°13'0 0.0
2019-Sep-20 23:21N 16°07' E 108°13'0 1.1
2019-Sep-20 23:00N 16°08' E 108°12'48312.6
2019-Sep-19 08:42N 22°11' E 113°49'417.8
2019-Sep-19 08:29N 22°15' E 113°49'815.6
2019-Sep-19 08:00N 22°22' E 113°50'4 0.5
2019-Sep-18 22:21N 22°18' E 113°48'615.1
2019-Sep-18 21:59N 22°13' E 113°49'612.9
2019-Sep-18 21:30N 22°07' E 113°51'611.3
2019-Sep-18 21:00N 22°01' E 113°52'713.9
2019-Sep-18 20:30N 21°54' E 113°52'611.6
2019-Sep-18 19:59N 21°48' E 113°52'  
2019-Sep-16 12:49N 14°32' E 120°54'2 0.2
2019-Sep-15 23:59N 14°33' E 120°56'612.6
2019-Sep-15 23:30N 14°31' E 120°50'61018.1
2019-Sep-14 13:47N 22°12' E 113°49'615.0
2019-Sep-14 13:24N 22°18' E 113°48'614.5
2019-Sep-14 12:58N 22°24' E 113°50'6 4.8
2019-Sep-14 11:43N 22°28' E 113°54'0 0.0
2019-Sep-14 05:55N 22°28' E 113°54'11 1.5
2019-Sep-13 22:13N 22°18' E 113°48'314.0
2019-Sep-13 21:59N 22°15' E 113°49'715.4
2019-Sep-13 21:30N 22°08' E 113°51'3 6.6
2019-Sep-13 21:00N 22°05' E 113°51'611.5
2019-Sep-13 20:30N 21°59' E 113°53'611.6
2019-Sep-13 19:59N 21°53' E 113°52'812.4
2019-Sep-13 19:19N 21°45' E 113°50'46510.7
2019-Sep-11 23:48N 16°08' E 108°12'  
Track history (hours):
 
Tides and Currents Weather Stations Pressure Air Temp Water Temp Dewpoint Dewpoint Depression Visibility Wind Speed Wind Dir Waves Ship Positions

Costa Atlantica (Italy)

Last reported at 2019-Sep-21 04:48 UTC. Time now 2019-Sep-21 10:56 UTC.
Position N 16°07' E 108°13'.

Length 292 m; draft 8 m.

Type: Ship. MMSI: 247595017.

Date/timePositionNaut miles runAvg speedWind from/ knotsBaromVisibWave heightAir tempDewpointWater temp
2019-Sep-21 04:48N 16°07' E 108°13'0 0.0
2019-Sep-21 04:31N 16°07' E 108°13'0 0.0
2019-Sep-21 04:00N 16°07' E 108°13'0 0.0
2019-Sep-21 03:31N 16°07' E 108°13'0 0.0
2019-Sep-21 03:00N 16°07' E 108°13'0 0.0
2019-Sep-20 23:21N 16°07' E 108°13'0 1.1
2019-Sep-20 23:00N 16°08' E 108°12'48312.6
2019-Sep-19 08:42N 22°11' E 113°49'417.8
2019-Sep-19 08:29N 22°15' E 113°49'815.6
2019-Sep-19 08:00N 22°22' E 113°50'4 0.5
2019-Sep-18 22:21N 22°18' E 113°48'615.1
2019-Sep-18 21:59N 22°13' E 113°49'612.9
2019-Sep-18 21:30N 22°07' E 113°51'611.3
2019-Sep-18 21:00N 22°01' E 113°52'713.9
2019-Sep-18 20:30N 21°54' E 113°52'611.6
2019-Sep-18 19:59N 21°48' E 113°52'  
2019-Sep-16 12:49N 14°32' E 120°54'2 0.2
2019-Sep-15 23:59N 14°33' E 120°56'612.6
2019-Sep-15 23:30N 14°31' E 120°50'61018.1
2019-Sep-14 13:47N 22°12' E 113°49'615.0
2019-Sep-14 13:24N 22°18' E 113°48'614.5
2019-Sep-14 12:58N 22°24' E 113°50'6 4.8
2019-Sep-14 11:43N 22°28' E 113°54'0 0.0
2019-Sep-14 05:55N 22°28' E 113°54'11 1.5
2019-Sep-13 22:13N 22°18' E 113°48'314.0
2019-Sep-13 21:59N 22°15' E 113°49'715.4
2019-Sep-13 21:30N 22°08' E 113°51'3 6.6
2019-Sep-13 21:00N 22°05' E 113°51'611.5
2019-Sep-13 20:30N 21°59' E 113°53'611.6
2019-Sep-13 19:59N 21°53' E 113°52'812.4
2019-Sep-13 19:19N 21°45' E 113°50'46510.7
2019-Sep-11 23:48N 16°08' E 108°12'  

Dump ship's entire track history